createdAt,value
2023-01-29T00:00:27.369Z,0.12
2023-01-29T00:03:16.119Z,0.14
2023-01-29T00:05:44.234Z,0.20
2023-01-29T00:08:12.293Z,0.24
2023-01-29T00:10:40.335Z,0.18
2023-01-29T00:13:08.464Z,0.20
2023-01-29T00:15:37.051Z,0.25
2023-01-29T00:18:05.203Z,0.15
2023-01-29T00:20:34.339Z,0.09
2023-01-29T00:23:02.796Z,0.10
2023-01-29T00:25:31.957Z,0.13
2023-01-29T00:28:00.168Z,0.17
2023-01-29T00:30:28.956Z,0.23
2023-01-29T00:32:57.935Z,0.26
2023-01-29T00:35:27.973Z,0.29
2023-01-29T00:37:56.580Z,0.31
2023-01-29T00:40:25.480Z,0.29
2023-01-29T00:43:12.174Z,0.21
2023-01-29T00:45:40.142Z,0.23
2023-01-29T00:48:08.099Z,0.18
2023-01-29T00:50:36.420Z,0.18
2023-01-29T00:53:04.774Z,0.16
2023-01-29T00:55:32.912Z,0.20
2023-01-29T00:58:00.929Z,0.28
2023-01-29T01:00:29.028Z,0.37
2023-01-29T01:03:06.658Z,0.45
2023-01-29T01:05:37.162Z,0.49
2023-01-29T01:08:25.736Z,0.55
2023-01-29T01:11:04.719Z,0.53
2023-01-29T01:13:34.278Z,0.56
2023-01-29T01:16:02.895Z,0.60
2023-01-29T01:18:31.087Z,0.59
2023-01-29T01:20:59.920Z,0.59
2023-01-29T01:23:29.013Z,0.57
2023-01-29T01:25:57.414Z,0.52
2023-01-29T01:28:25.488Z,0.51
2023-01-29T01:30:54.109Z,0.48
2023-01-29T01:33:22.417Z,0.35
2023-01-29T01:35:50.576Z,0.24
2023-01-29T01:38:19.036Z,0.25
2023-01-29T01:40:47.948Z,0.23
2023-01-29T01:43:16.310Z,0.24
2023-01-29T01:45:46.914Z,0.21
2023-01-29T01:48:19.568Z,0.26
2023-01-29T01:51:01.754Z,0.26
2023-01-29T01:53:35.637Z,0.24
2023-01-29T01:56:07.176Z,0.26
2023-01-29T01:58:45.648Z,0.24
2023-01-29T02:01:13.977Z,0.23
2023-01-29T02:04:03.660Z,0.26
2023-01-29T02:06:51.431Z,0.32
2023-01-29T02:09:34.326Z,0.35
2023-01-29T02:12:05.321Z,0.37
2023-01-29T02:14:34.984Z,0.42
2023-01-29T02:17:03.711Z,0.49
2023-01-29T02:19:38.992Z,0.56
2023-01-29T02:22:10.765Z,0.64
2023-01-29T02:24:39.436Z,0.63
2023-01-29T02:27:21.089Z,0.60
2023-01-29T02:29:49.119Z,0.47
2023-01-29T02:32:30.093Z,0.40
2023-01-29T02:35:32.222Z,0.31
2023-01-29T02:38:00.543Z,0.26
2023-01-29T02:40:36.535Z,0.23
2023-01-29T02:43:08.919Z,0.16
2023-01-29T02:45:40.014Z,0.11
2023-01-29T02:48:14.335Z,0.11
2023-01-29T02:50:45.148Z,0.09
2023-01-29T02:53:19.732Z,-0.04
2023-01-29T02:56:03.842Z,-0.04
2023-01-29T02:58:38.680Z,0.03
2023-01-29T03:01:27.112Z,0.00
2023-01-29T03:03:58.472Z,-0.12
2023-01-29T03:06:38.120Z,-0.19
2023-01-29T03:09:10.683Z,-0.24
2023-01-29T03:11:41.653Z,-0.23
2023-01-29T03:14:17.046Z,-0.21
2023-01-29T03:16:48.950Z,-0.11
2023-01-29T03:19:32.078Z,-0.10
2023-01-29T03:22:04.346Z,-0.14
2023-01-29T03:24:54.403Z,-0.11
2023-01-29T03:27:46.145Z,-0.12
2023-01-29T03:30:35.944Z,-0.13
2023-01-29T03:33:29.765Z,-0.12
2023-01-29T03:36:04.531Z,-0.10
2023-01-29T03:38:33.264Z,-0.17
2023-01-29T03:41:06.105Z,-0.23
2023-01-29T03:43:43.773Z,-0.21
2023-01-29T03:46:19.272Z,-0.25
2023-01-29T03:48:54.670Z,-0.25
2023-01-29T03:51:55.539Z,-0.30
2023-01-29T03:54:27.335Z,-0.27
2023-01-29T03:56:55.557Z,-0.21
2023-01-29T03:59:56.872Z,-0.19
2023-01-29T04:03:14.435Z,-0.13
2023-01-29T04:05:46.469Z,-0.11
2023-01-29T04:08:24.630Z,-0.09
2023-01-29T04:10:55.523Z,-0.02
2023-01-29T04:13:25.415Z,-0.04
2023-01-29T04:15:57.243Z,-0.11
2023-01-29T04:18:54.938Z,-0.12
2023-01-29T04:21:28.846Z,-0.14
2023-01-29T04:23:57.366Z,-0.12
2023-01-29T04:26:32.774Z,-0.11
2023-01-29T04:29:16.625Z,-0.05
2023-01-29T04:32:11.809Z,-0.04
2023-01-29T04:34:53.002Z,0.01
2023-01-29T04:37:34.749Z,-0.01
2023-01-29T04:40:05.801Z,-0.00
2023-01-29T04:42:33.966Z,-0.00
2023-01-29T04:45:08.084Z,0.01
2023-01-29T04:47:48.669Z,-0.04
2023-01-29T04:50:22.429Z,-0.04
2023-01-29T04:52:57.115Z,-0.10
2023-01-29T04:55:28.456Z,-0.09
2023-01-29T04:57:59.491Z,-0.07
2023-01-29T05:00:30.923Z,-0.18
2023-01-29T05:03:00.620Z,-0.26
2023-01-29T05:05:29.372Z,-0.31
2023-01-29T05:07:58.886Z,-0.33
2023-01-29T05:10:27.021Z,-0.40
2023-01-29T05:12:59.202Z,-0.44
2023-01-29T05:15:32.197Z,-0.48
2023-01-29T05:18:03.353Z,-0.42
2023-01-29T05:20:33.558Z,-0.36
2023-01-29T05:23:01.660Z,-0.38
2023-01-29T05:25:31.766Z,-0.39
2023-01-29T05:28:14.240Z,-0.34
2023-01-29T05:30:43.248Z,-0.25
2023-01-29T05:33:15.678Z,-0.21
2023-01-29T05:35:43.753Z,-0.24
2023-01-29T05:38:12.156Z,-0.22
2023-01-29T05:40:40.278Z,-0.20
2023-01-29T05:43:19.148Z,-0.20
2023-01-29T05:45:54.454Z,-0.21
2023-01-29T05:48:22.763Z,-0.19
2023-01-29T05:50:51.817Z,-0.17
2023-01-29T05:53:20.229Z,-0.15
2023-01-29T05:55:49.245Z,-0.16
2023-01-29T05:58:19.862Z,-0.17
2023-01-29T06:00:48.006Z,-0.17
2023-01-29T06:03:16.220Z,-0.15
2023-01-29T06:05:44.748Z,-0.13
2023-01-29T06:08:13.643Z,-0.20
2023-01-29T06:10:42.226Z,-0.31
2023-01-29T06:13:10.628Z,-0.40
2023-01-29T06:15:39.947Z,-0.53
2023-01-29T06:18:08.743Z,-0.54
2023-01-29T06:20:37.492Z,-0.65
2023-01-29T06:23:05.558Z,-0.68
2023-01-29T06:25:33.546Z,-0.68
2023-01-29T06:28:01.705Z,-0.62
2023-01-29T06:30:30.029Z,-0.58
2023-01-29T06:32:59.409Z,-0.58
2023-01-29T06:35:28.012Z,-0.48
2023-01-29T06:37:56.381Z,-0.40
2023-01-29T06:40:24.917Z,-0.37
2023-01-29T06:42:53.660Z,-0.32
2023-01-29T06:45:21.913Z,-0.29
2023-01-29T06:47:50.156Z,-0.27
2023-01-29T06:50:18.630Z,-0.31
2023-01-29T06:52:47.199Z,-0.30
2023-01-29T06:55:15.324Z,-0.32
2023-01-29T06:57:43.338Z,-0.30
2023-01-29T07:00:12.551Z,-0.26
2023-01-29T07:02:41.191Z,-0.24
2023-01-29T07:05:09.201Z,-0.18
2023-01-29T07:07:37.200Z,-0.15
2023-01-29T07:10:05.313Z,-0.12
2023-01-29T07:12:33.421Z,-0.06
2023-01-29T07:15:01.467Z,-0.02
2023-01-29T07:17:29.531Z,-0.01
2023-01-29T07:19:57.771Z,-0.01
2023-01-29T07:22:26.303Z,0.03
2023-01-29T07:24:54.678Z,0.01
2023-01-29T07:27:22.933Z,0.03
2023-01-29T07:29:51.182Z,0.05
2023-01-29T07:32:19.917Z,0.05
2023-01-29T07:34:48.276Z,0.03
2023-01-29T07:37:17.375Z,0.05
2023-01-29T07:39:47.943Z,0.08
2023-01-29T07:42:16.202Z,0.09
2023-01-29T07:44:44.725Z,0.06
2023-01-29T07:47:12.999Z,-0.04
2023-01-29T07:49:41.323Z,-0.14
2023-01-29T07:52:10.207Z,-0.06
2023-01-29T07:54:38.710Z,-0.01
2023-01-29T07:57:06.990Z,0.08
2023-01-29T07:59:35.312Z,0.15
2023-01-29T08:02:03.894Z,0.22
2023-01-29T08:04:31.911Z,0.23
2023-01-29T08:06:59.974Z,0.32
2023-01-29T08:09:28.390Z,0.34
2023-01-29T08:11:56.900Z,0.36
2023-01-29T08:14:25.256Z,0.41
2023-01-29T08:16:54.147Z,0.36
2023-01-29T08:19:22.388Z,0.22
2023-01-29T08:21:50.855Z,0.22
2023-01-29T08:24:19.235Z,0.22
2023-01-29T08:26:47.881Z,0.26
2023-01-29T08:29:16.172Z,0.25
2023-01-29T08:31:44.559Z,0.16
2023-01-29T08:34:13.030Z,0.20
2023-01-29T08:36:41.567Z,0.35
2023-01-29T08:39:10.085Z,0.48
2023-01-29T08:41:38.655Z,0.52
2023-01-29T08:44:07.312Z,0.58
2023-01-29T08:46:35.939Z,0.70
2023-01-29T08:49:04.474Z,0.74
2023-01-29T08:51:32.855Z,0.72
2023-01-29T08:54:00.950Z,0.70
2023-01-29T08:56:29.826Z,0.69
2023-01-29T08:58:59.194Z,0.72
2023-01-29T09:01:27.538Z,0.71
2023-01-29T09:03:55.999Z,0.70
2023-01-29T09:06:24.036Z,0.62
2023-01-29T09:08:52.179Z,0.49
2023-01-29T09:11:20.483Z,0.45
2023-01-29T09:13:48.705Z,0.56
2023-01-29T09:16:17.251Z,0.59
2023-01-29T09:18:45.653Z,0.62
2023-01-29T09:21:13.831Z,0.70
2023-01-29T09:23:41.827Z,0.77
2023-01-29T09:26:10.075Z,0.74
2023-01-29T09:28:38.765Z,0.79
2023-01-29T09:31:07.055Z,0.90
2023-01-29T09:33:35.252Z,0.88
2023-01-29T09:36:04.328Z,0.80
2023-01-29T09:38:32.448Z,0.73
2023-01-29T09:41:12.728Z,0.64
2023-01-29T09:43:45.420Z,0.58
2023-01-29T09:46:15.325Z,0.60
2023-01-29T09:48:44.511Z,0.76
2023-01-29T09:51:20.780Z,0.96
2023-01-29T09:53:55.128Z,1.18
2023-01-29T09:56:29.114Z,1.34
2023-01-29T09:59:00.663Z,1.54
2023-01-29T10:01:37.744Z,1.63
2023-01-29T10:04:06.095Z,1.70
2023-01-29T10:06:44.093Z,1.59
2023-01-29T10:09:18.893Z,1.70
2023-01-29T10:11:47.034Z,1.81
2023-01-29T10:14:38.177Z,1.95
2023-01-29T10:17:08.968Z,2.08
2023-01-29T10:19:39.935Z,2.16
2023-01-29T10:22:14.089Z,2.12
2023-01-29T10:24:46.338Z,1.88
2023-01-29T10:27:19.088Z,1.74
2023-01-29T10:29:49.687Z,1.76
2023-01-29T10:32:19.921Z,1.78
2023-01-29T10:34:48.002Z,1.69
2023-01-29T10:37:18.770Z,1.61
2023-01-29T10:39:46.793Z,1.57
2023-01-29T10:42:14.609Z,1.47
2023-01-29T10:44:48.825Z,1.40
2023-01-29T10:47:25.864Z,0.84
2023-01-29T10:50:04.985Z,0.70
2023-01-29T10:52:32.952Z,0.77
2023-01-29T10:55:19.900Z,0.93
2023-01-29T10:57:51.030Z,1.03
2023-01-29T11:00:19.219Z,1.06
2023-01-29T11:02:48.919Z,0.98
2023-01-29T11:05:20.317Z,0.79
2023-01-29T11:07:49.869Z,0.54
2023-01-29T11:10:21.503Z,0.47
2023-01-29T11:12:50.459Z,0.42
2023-01-29T11:15:21.252Z,0.39
2023-01-29T11:18:14.359Z,0.29
2023-01-29T11:20:43.957Z,0.33
2023-01-29T11:23:28.989Z,0.23
2023-01-29T11:25:58.601Z,0.19
2023-01-29T11:28:39.300Z,0.09
2023-01-29T11:31:23.976Z,0.04
2023-01-29T11:34:06.674Z,0.07
2023-01-29T11:36:37.480Z,0.12
2023-01-29T11:39:08.783Z,0.13
2023-01-29T11:41:44.199Z,0.15
2023-01-29T11:44:26.711Z,0.06
2023-01-29T11:46:55.055Z,0.06
2023-01-29T11:49:44.652Z,0.06
2023-01-29T11:52:14.501Z,0.04
2023-01-29T11:54:49.625Z,0.08
2023-01-29T11:57:24.751Z,0.15
2023-01-29T11:59:54.157Z,0.12
2023-01-29T12:02:31.967Z,0.16
2023-01-29T12:05:02.408Z,0.18
2023-01-29T12:07:31.176Z,0.14
2023-01-29T12:10:00.250Z,0.03
2023-01-29T12:12:30.111Z,0.06
2023-01-29T12:15:06.067Z,0.07
2023-01-29T12:17:38.000Z,0.01
2023-01-29T12:20:18.446Z,0.08
2023-01-29T12:23:25.533Z,0.11
2023-01-29T12:26:01.056Z,0.26
2023-01-29T12:28:36.263Z,0.38
2023-01-29T12:31:09.687Z,0.32
2023-01-29T12:33:40.785Z,0.33
2023-01-29T12:36:18.164Z,0.36
2023-01-29T12:38:46.061Z,0.27
2023-01-29T12:41:25.246Z,0.30
2023-01-29T12:43:56.291Z,0.31
2023-01-29T12:46:30.701Z,0.26
2023-01-29T12:49:02.251Z,0.32
2023-01-29T12:51:33.839Z,0.29
2023-01-29T12:54:11.245Z,0.20
2023-01-29T12:56:41.423Z,0.18
2023-01-29T12:59:18.641Z,0.13
2023-01-29T13:01:55.403Z,0.02
2023-01-29T13:04:32.916Z,0.01
2023-01-29T13:07:21.360Z,-0.05
2023-01-29T13:09:54.826Z,0.00
2023-01-29T13:12:23.442Z,-0.03
2023-01-29T13:14:54.272Z,-0.06
2023-01-29T13:17:22.241Z,-0.10
2023-01-29T13:19:51.531Z,-0.15
2023-01-29T13:22:24.603Z,-0.20
2023-01-29T13:25:04.293Z,-0.22
2023-01-29T13:27:34.389Z,-0.14
2023-01-29T13:30:02.558Z,-0.10
2023-01-29T13:32:32.048Z,-0.09
2023-01-29T13:35:01.507Z,-0.13
2023-01-29T13:37:34.538Z,-0.11
2023-01-29T13:40:04.341Z,-0.16
2023-01-29T13:42:37.816Z,-0.22
2023-01-29T13:45:06.934Z,-0.25
2023-01-29T13:47:38.129Z,-0.30
2023-01-29T13:50:07.703Z,-0.25
2023-01-29T13:52:43.556Z,-0.20
2023-01-29T13:55:14.472Z,-0.11
2023-01-29T13:57:45.247Z,-0.04
2023-01-29T14:00:22.946Z,-0.07
2023-01-29T14:02:56.972Z,-0.11
2023-01-29T14:05:31.551Z,-0.06
2023-01-29T14:08:00.349Z,0.03
2023-01-29T14:10:33.088Z,0.01
2023-01-29T14:13:01.321Z,0.05
2023-01-29T14:15:33.706Z,0.08
2023-01-29T14:18:21.516Z,0.09
2023-01-29T14:20:49.769Z,0.02
2023-01-29T14:23:21.185Z,-0.09
2023-01-29T14:25:49.290Z,-0.21
2023-01-29T14:28:21.376Z,-0.27
2023-01-29T14:30:50.325Z,-0.23
2023-01-29T14:33:39.810Z,-0.23
2023-01-29T14:36:13.518Z,-0.23
2023-01-29T14:38:48.006Z,-0.24
2023-01-29T14:41:16.173Z,-0.31
2023-01-29T14:43:44.115Z,-0.30
2023-01-29T14:46:31.282Z,-0.33
2023-01-29T14:48:59.422Z,-0.35
2023-01-29T14:51:32.733Z,-0.32
2023-01-29T14:54:23.244Z,-0.36
2023-01-29T14:56:54.467Z,-0.46
2023-01-29T14:59:27.569Z,-0.48
2023-01-29T15:01:56.897Z,-0.48
2023-01-29T15:04:42.425Z,-0.47
2023-01-29T15:07:10.920Z,-0.50
2023-01-29T15:10:21.047Z,-0.54
2023-01-29T15:12:49.378Z,-0.62
2023-01-29T15:15:27.467Z,-0.64
2023-01-29T15:18:01.407Z,-0.71
2023-01-29T15:20:41.959Z,-0.74
2023-01-29T15:23:43.834Z,-0.73
2023-01-29T15:26:16.602Z,-0.76
2023-01-29T15:28:54.843Z,-0.73
2023-01-29T15:31:35.570Z,-0.63
2023-01-29T15:34:06.541Z,-0.54
2023-01-29T15:36:37.169Z,-0.52
2023-01-29T15:39:11.156Z,-0.54
2023-01-29T15:41:39.533Z,-0.49
2023-01-29T15:44:16.890Z,-0.59
2023-01-29T15:46:48.181Z,-0.64
2023-01-29T15:49:22.883Z,-0.58
2023-01-29T15:51:57.181Z,-0.67
2023-01-29T15:54:26.939Z,-0.64
2023-01-29T15:56:54.979Z,-0.64
2023-01-29T15:59:24.891Z,-0.66
2023-01-29T16:01:56.615Z,-0.62
2023-01-29T16:04:31.300Z,-0.59
2023-01-29T16:07:01.066Z,-0.65
2023-01-29T16:09:30.010Z,-0.61
2023-01-29T16:11:58.939Z,-0.67
2023-01-29T16:14:28.608Z,-0.65
2023-01-29T16:16:56.599Z,-0.64
2023-01-29T16:19:26.384Z,-0.61
2023-01-29T16:22:02.778Z,-0.60
2023-01-29T16:24:31.765Z,-0.57
2023-01-29T16:27:01.710Z,-0.56
2023-01-29T16:29:33.799Z,-0.56
2023-01-29T16:32:03.101Z,-0.61
2023-01-29T16:34:35.012Z,-0.65
2023-01-29T16:37:09.132Z,-0.70
2023-01-29T16:39:40.007Z,-0.67
2023-01-29T16:42:12.582Z,-0.65
2023-01-29T16:44:41.328Z,-0.66
2023-01-29T16:47:23.827Z,-0.71
2023-01-29T16:49:54.070Z,-0.76
2023-01-29T16:52:27.627Z,-0.76
2023-01-29T16:55:00.975Z,-0.75
2023-01-29T16:57:33.784Z,-0.78
2023-01-29T17:00:03.523Z,-0.85
2023-01-29T17:02:35.950Z,-0.90
2023-01-29T17:05:07.722Z,-0.91
2023-01-29T17:07:36.925Z,-0.88
2023-01-29T17:10:07.526Z,-0.87
2023-01-29T17:12:37.357Z,-0.88
2023-01-29T17:15:27.544Z,-0.84
2023-01-29T17:17:56.665Z,-0.84
2023-01-29T17:20:26.986Z,-0.87
2023-01-29T17:22:56.028Z,-0.96
2023-01-29T17:25:24.689Z,-1.02
2023-01-29T17:27:52.930Z,-1.01
2023-01-29T17:30:22.837Z,-1.08
2023-01-29T17:32:50.967Z,-1.07
2023-01-29T17:35:19.454Z,-1.09
2023-01-29T17:37:48.381Z,-1.05
2023-01-29T17:40:30.166Z,-1.06
2023-01-29T17:42:58.333Z,-1.07
2023-01-29T17:45:26.650Z,-1.06
2023-01-29T17:47:54.698Z,-1.04
2023-01-29T17:50:24.294Z,-1.07
2023-01-29T17:52:54.144Z,-1.07
2023-01-29T17:55:22.496Z,-1.05
2023-01-29T17:57:50.891Z,-1.04
2023-01-29T18:00:22.872Z,-1.00
2023-01-29T18:02:51.900Z,-1.07
2023-01-29T18:05:20.413Z,-1.12
2023-01-29T18:07:52.613Z,-1.07
2023-01-29T18:10:21.963Z,-1.01
2023-01-29T18:12:50.713Z,-1.08
2023-01-29T18:15:20.001Z,-1.14
2023-01-29T18:17:48.836Z,-1.14
2023-01-29T18:20:19.985Z,-1.08
2023-01-29T18:22:48.713Z,-1.10
2023-01-29T18:25:20.060Z,-1.11
2023-01-29T18:27:48.659Z,-1.07
2023-01-29T18:30:16.876Z,-1.12
2023-01-29T18:32:44.954Z,-1.19
2023-01-29T18:35:13.126Z,-1.16
2023-01-29T18:37:41.201Z,-1.10
2023-01-29T18:40:17.367Z,-1.05
2023-01-29T18:42:45.990Z,-1.01
2023-01-29T18:45:15.539Z,-1.05
2023-01-29T18:47:44.501Z,-1.12
2023-01-29T18:50:12.760Z,-1.12
2023-01-29T18:52:42.080Z,-1.12
2023-01-29T18:55:11.699Z,-1.09
2023-01-29T18:58:25.459Z,-1.14
2023-01-29T19:00:28.835Z,-1.17
2023-01-29T19:02:56.941Z,-1.21
2023-01-29T19:05:25.767Z,-1.20
2023-01-29T19:07:53.935Z,-1.24
2023-01-29T19:10:22.819Z,-1.30
2023-01-29T19:12:50.866Z,-1.35
2023-01-29T19:15:21.595Z,-1.34
2023-01-29T19:17:53.421Z,-1.35
2023-01-29T19:20:21.941Z,-1.37
2023-01-29T19:22:50.083Z,-1.37
2023-01-29T19:25:19.819Z,-1.42
2023-01-29T19:27:48.196Z,-1.42
2023-01-29T19:30:16.321Z,-1.44
2023-01-29T19:32:44.926Z,-1.42
2023-01-29T19:35:13.207Z,-1.38
2023-01-29T19:37:42.567Z,-1.40
2023-01-29T19:40:11.222Z,-1.41
2023-01-29T19:42:39.931Z,-1.42
2023-01-29T19:45:08.385Z,-1.45
2023-01-29T19:47:40.837Z,-1.40
2023-01-29T19:50:12.092Z,-1.40
2023-01-29T19:52:55.812Z,-1.44
2023-01-29T19:55:23.973Z,-1.37
2023-01-29T19:57:53.270Z,-1.38
2023-01-29T20:00:22.047Z,-1.42
2023-01-29T20:02:50.043Z,-1.37
2023-01-29T20:05:20.726Z,-1.43
2023-01-29T20:07:50.213Z,-1.45
2023-01-29T20:10:18.903Z,-1.55
2023-01-29T20:12:47.685Z,-1.57
2023-01-29T20:15:16.092Z,-1.48
2023-01-29T20:17:45.808Z,-1.47
2023-01-29T20:20:14.053Z,-1.39
2023-01-29T20:22:42.057Z,-1.33
2023-01-29T20:25:10.676Z,-1.29
2023-01-29T20:27:40.476Z,-1.25
2023-01-29T20:30:09.469Z,-1.24
2023-01-29T20:32:37.475Z,-1.27
2023-01-29T20:35:05.712Z,-1.34
2023-01-29T20:37:34.162Z,-1.40
2023-01-29T20:40:02.293Z,-1.36
2023-01-29T20:42:30.402Z,-1.45
2023-01-29T20:44:58.491Z,-1.52
2023-01-29T20:47:27.132Z,-1.61
2023-01-29T20:49:56.939Z,-1.63
2023-01-29T20:52:25.618Z,-1.73
2023-01-29T20:54:54.104Z,-1.72
2023-01-29T20:57:22.190Z,-1.72
2023-01-29T20:59:50.410Z,-1.74
2023-01-29T21:02:18.989Z,-1.76
2023-01-29T21:04:47.039Z,-1.80
2023-01-29T21:07:15.109Z,-1.79
2023-01-29T21:09:43.494Z,-1.81
2023-01-29T21:12:11.872Z,-1.81
2023-01-29T21:14:40.025Z,-1.79
2023-01-29T21:17:08.626Z,-1.71
2023-01-29T21:19:36.892Z,-1.66
2023-01-29T21:22:05.071Z,-1.68
2023-01-29T21:24:33.235Z,-1.71
2023-01-29T21:27:01.663Z,-1.72
2023-01-29T21:29:29.803Z,-1.78
2023-01-29T21:31:58.273Z,-1.84
2023-01-29T21:34:26.691Z,-1.90
2023-01-29T21:36:54.727Z,-1.93
2023-01-29T21:39:25.086Z,-1.97
2023-01-29T21:42:13.332Z,-2.00
2023-01-29T21:44:41.501Z,-2.11
2023-01-29T21:47:12.721Z,-2.20
2023-01-29T21:49:41.678Z,-2.18
2023-01-29T21:52:11.537Z,-2.15
2023-01-29T21:54:45.943Z,-2.16
2023-01-29T21:57:17.059Z,-2.19
2023-01-29T21:59:48.281Z,-2.17
2023-01-29T22:02:23.397Z,-2.20
2023-01-29T22:04:54.066Z,-2.19
2023-01-29T22:07:22.427Z,-2.18
2023-01-29T22:09:51.363Z,-2.19
2023-01-29T22:12:19.479Z,-2.16
2023-01-29T22:14:47.554Z,-2.09
2023-01-29T22:17:16.604Z,-2.03
2023-01-29T22:19:44.458Z,-1.94
2023-01-29T22:22:13.036Z,-1.93
2023-01-29T22:24:42.102Z,-1.91
2023-01-29T22:27:10.564Z,-1.85
2023-01-29T22:29:38.870Z,-1.80
2023-01-29T22:32:06.904Z,-1.81
2023-01-29T22:34:35.034Z,-1.80
2023-01-29T22:37:03.037Z,-1.77
2023-01-29T22:39:31.105Z,-1.77
2023-01-29T22:41:59.196Z,-1.79
2023-01-29T22:44:27.254Z,-1.84
2023-01-29T22:46:55.139Z,-1.89
2023-01-29T22:49:23.759Z,-1.95
2023-01-29T22:52:10.172Z,-1.97
2023-01-29T22:54:39.382Z,-1.95
2023-01-29T22:57:10.355Z,-1.92
2023-01-29T22:59:38.928Z,-1.93
2023-01-29T23:02:07.641Z,-1.95
2023-01-29T23:04:35.959Z,-1.93
2023-01-29T23:07:04.498Z,-1.93
2023-01-29T23:09:32.535Z,-1.95
2023-01-29T23:12:01.579Z,-1.92
2023-01-29T23:14:29.579Z,-1.89
2023-01-29T23:16:57.949Z,-1.87
2023-01-29T23:19:27.246Z,-1.83
2023-01-29T23:21:55.742Z,-1.79
2023-01-29T23:24:23.838Z,-1.77
2023-01-29T23:27:10.320Z,-1.78
2023-01-29T23:29:38.267Z,-1.78
2023-01-29T23:32:07.211Z,-1.75
2023-01-29T23:34:35.564Z,-1.77
2023-01-29T23:37:03.597Z,-1.76
2023-01-29T23:39:31.677Z,-1.79
2023-01-29T23:42:00.138Z,-1.81
2023-01-29T23:44:28.394Z,-1.77
2023-01-29T23:46:56.490Z,-1.73
2023-01-29T23:49:24.710Z,-1.71
2023-01-29T23:51:53.302Z,-1.68
2023-01-29T23:54:21.381Z,-1.64
2023-01-29T23:56:49.587Z,-1.61
2023-01-29T23:59:17.630Z,-1.57
